createdAt,value
2019-02-25T00:01:44.537Z,1028.33
2019-02-25T00:06:43.833Z,1028.30
2019-02-25T00:11:43.300Z,1028.43
2019-02-25T00:16:43.513Z,1028.23
2019-02-25T00:21:43.350Z,1028.21
2019-02-25T00:26:42.442Z,1028.12
2019-02-25T00:31:42.360Z,1028.14
2019-02-25T00:36:42.566Z,1028.11
2019-02-25T00:41:43.358Z,1028.13
2019-02-25T00:46:43.544Z,1028.00
2019-02-25T00:51:42.722Z,1028.12
2019-02-25T00:56:42.331Z,1028.02
2019-02-25T01:01:41.520Z,1027.99
2019-02-25T01:06:41.373Z,1028.04
2019-02-25T01:11:40.367Z,1027.99
2019-02-25T01:16:40.375Z,1027.88
2019-02-25T01:21:40.707Z,1027.84
2019-02-25T01:26:40.331Z,1027.89
2019-02-25T01:31:39.380Z,1027.92
2019-02-25T01:36:40.417Z,1027.86
2019-02-25T01:41:40.370Z,1027.83
2019-02-25T01:46:39.414Z,1027.87
2019-02-25T01:51:38.367Z,1027.79
2019-02-25T01:56:37.373Z,1027.75
2019-02-25T02:01:37.529Z,1027.80
2019-02-25T02:06:36.365Z,1027.81
2019-02-25T02:11:36.697Z,1027.86
2019-02-25T02:16:35.429Z,1027.90
2019-02-25T02:21:36.618Z,1027.80
2019-02-25T02:26:36.588Z,1027.93
2019-02-25T02:31:35.933Z,1027.84
2019-02-25T02:36:36.576Z,1027.79
2019-02-25T02:41:35.774Z,1027.81
2019-02-25T02:46:36.608Z,1027.92
2019-02-25T02:51:35.494Z,1027.91
2019-02-25T02:56:35.366Z,1027.86
2019-02-25T03:01:35.868Z,1027.86
2019-02-25T03:06:35.800Z,1027.87
2019-02-25T03:11:35.690Z,1027.83
2019-02-25T03:16:34.423Z,1027.75
2019-02-25T03:21:33.640Z,1027.74
2019-02-25T03:26:34.469Z,1027.70
2019-02-25T03:31:33.442Z,1027.68
2019-02-25T03:36:33.404Z,1027.67
2019-02-25T03:41:33.431Z,1027.64
2019-02-25T03:46:32.606Z,1027.74
2019-02-25T03:51:32.473Z,1027.66
2019-02-25T03:56:31.697Z,1027.71
2019-02-25T04:01:31.672Z,1027.73
2019-02-25T04:06:30.673Z,1027.83
2019-02-25T04:11:30.424Z,1027.74
2019-02-25T04:16:30.535Z,1027.71
2019-02-25T04:21:30.934Z,1027.74
2019-02-25T04:26:29.923Z,1027.74
2019-02-25T04:31:29.523Z,1027.67
2019-02-25T04:36:29.469Z,1027.69
2019-02-25T04:41:29.465Z,1027.74
2019-02-25T04:46:28.676Z,1027.73
2019-02-25T04:51:28.619Z,1027.73
2019-02-25T04:56:28.451Z,1027.75
2019-02-25T05:01:28.931Z,1027.78
2019-02-25T05:06:28.507Z,1027.75
2019-02-25T05:11:28.445Z,1027.82
2019-02-25T05:16:29.703Z,1027.85
2019-02-25T05:21:29.502Z,1027.69
2019-02-25T05:26:29.571Z,1027.64
2019-02-25T05:31:28.737Z,1027.57
2019-02-25T05:36:28.539Z,1027.60
2019-02-25T05:41:27.513Z,1027.57
2019-02-25T05:46:28.536Z,1027.47
2019-02-25T05:51:28.513Z,1027.58
2019-02-25T05:56:27.565Z,1027.61
2019-02-25T06:01:26.527Z,1027.82
2019-02-25T06:06:26.578Z,1027.84
2019-02-25T06:11:26.583Z,1027.85
2019-02-25T06:16:26.660Z,1027.85
2019-02-25T06:21:26.033Z,1027.92
2019-02-25T06:26:26.576Z,1027.79
2019-02-25T06:31:26.615Z,1027.79
2019-02-25T06:36:26.673Z,1027.74
2019-02-25T06:41:26.642Z,1027.66
2019-02-25T06:46:27.726Z,1027.69
2019-02-25T06:51:26.581Z,1027.69
2019-02-25T06:56:26.563Z,1027.69
2019-02-25T07:01:25.638Z,1027.80
2019-02-25T07:06:25.592Z,1027.95
2019-02-25T07:11:26.600Z,1027.96
2019-02-25T07:16:25.605Z,1027.96
2019-02-25T07:21:25.595Z,1028.06
2019-02-25T07:26:24.721Z,1028.16
2019-02-25T07:31:24.571Z,1028.09
2019-02-25T07:36:24.607Z,1028.03
2019-02-25T07:41:24.602Z,1028.11
2019-02-25T07:46:23.616Z,1028.19
2019-02-25T07:51:22.632Z,1028.24
2019-02-25T07:56:22.628Z,1028.21
2019-02-25T08:01:22.601Z,1028.22
2019-02-25T08:06:22.137Z,1028.14
2019-02-25T08:11:22.688Z,1028.28
2019-02-25T08:16:21.971Z,1028.28
2019-02-25T08:21:22.715Z,1028.36
2019-02-25T08:26:22.865Z,1028.45
2019-02-25T08:31:22.696Z,1028.42
2019-02-25T08:36:21.671Z,1028.57
2019-02-25T08:41:21.626Z,1028.65
2019-02-25T08:46:20.741Z,1028.60
2019-02-25T08:51:19.802Z,1028.65
2019-02-25T08:56:20.659Z,1028.71
2019-02-25T09:01:19.853Z,1028.69
2019-02-25T09:06:19.661Z,1028.69
2019-02-25T09:11:19.667Z,1028.75
2019-02-25T09:16:19.647Z,1028.80
2019-02-25T09:21:19.658Z,1028.68
2019-02-25T09:26:18.612Z,1028.73
2019-02-25T09:31:18.677Z,1028.80
2019-02-25T09:36:18.683Z,1028.81
2019-02-25T09:41:19.670Z,1028.78
2019-02-25T09:46:20.677Z,1028.84
2019-02-25T09:51:20.660Z,1028.83
2019-02-25T09:56:19.670Z,1028.93
2019-02-25T10:01:20.792Z,1028.82
2019-02-25T10:06:21.659Z,1028.69
2019-02-25T10:11:20.682Z,1028.55
2019-02-25T10:16:19.770Z,1028.59
2019-02-25T10:21:18.677Z,1028.63
2019-02-25T10:26:18.672Z,1028.54
2019-02-25T10:31:17.675Z,1028.52
2019-02-25T10:36:18.654Z,1028.58
2019-02-25T10:41:19.705Z,1028.55
2019-02-25T10:46:17.773Z,1028.60
2019-02-25T10:51:17.740Z,1028.55
2019-02-25T10:56:17.359Z,1028.54
2019-02-25T11:01:17.597Z,1028.57
2019-02-25T11:06:14.658Z,1028.45
2019-02-25T11:11:13.684Z,1028.36
2019-02-25T11:16:14.007Z,1028.29
2019-02-25T11:21:12.655Z,1028.16
2019-02-25T11:26:11.828Z,1028.14
2019-02-25T11:31:11.666Z,1028.19
2019-02-25T11:36:12.591Z,1028.07
2019-02-25T11:41:11.265Z,1027.98
2019-02-25T11:46:10.771Z,1027.96
2019-02-25T11:51:11.685Z,1027.85
2019-02-25T11:56:10.711Z,1027.85
2019-02-25T12:01:10.711Z,1027.79
2019-02-25T12:06:09.745Z,1027.84
2019-02-25T12:11:08.879Z,1027.80
2019-02-25T12:16:08.728Z,1027.61
2019-02-25T12:21:08.693Z,1027.55
2019-02-25T12:26:08.686Z,1027.27
2019-02-25T12:31:08.692Z,1027.17
2019-02-25T12:36:08.721Z,1027.07
2019-02-25T12:41:08.688Z,1026.94
2019-02-25T12:46:07.647Z,1026.79
2019-02-25T12:51:07.675Z,1026.55
2019-02-25T12:56:07.677Z,1026.42
2019-02-25T13:01:07.683Z,1026.31
2019-02-25T13:06:06.814Z,1026.19
2019-02-25T13:11:06.705Z,1026.14
2019-02-25T13:16:05.867Z,1026.08
2019-02-25T13:21:04.934Z,1026.03
2019-02-25T13:26:07.431Z,1025.96
2019-02-25T13:31:05.274Z,1026.03
2019-02-25T13:36:02.986Z,1025.95
2019-02-25T13:41:03.678Z,1025.92
2019-02-25T13:46:03.689Z,1025.87
2019-02-25T13:51:03.734Z,1025.74
2019-02-25T13:56:03.668Z,1025.73
2019-02-25T14:01:03.677Z,1025.76
2019-02-25T14:06:02.819Z,1025.77
2019-02-25T14:11:01.777Z,1025.70
2019-02-25T14:16:01.728Z,1025.69
2019-02-25T14:21:01.731Z,1025.68
2019-02-25T14:26:02.777Z,1025.80
2019-02-25T14:31:02.088Z,1025.81
2019-02-25T14:36:02.732Z,1025.87
2019-02-25T14:41:04.505Z,1025.98
2019-02-25T14:46:01.705Z,1026.02
2019-02-25T14:51:00.681Z,1025.96
2019-02-25T14:56:03.828Z,1026.02
2019-02-25T15:01:00.677Z,1026.00
2019-02-25T15:06:00.661Z,1026.01
2019-02-25T15:11:02.402Z,1026.02
2019-02-25T15:16:00.672Z,1025.93
2019-02-25T15:21:02.071Z,1025.93
2019-02-25T15:26:05.234Z,1025.92
2019-02-25T15:31:00.023Z,1025.99
2019-02-25T15:36:01.307Z,1026.05
2019-02-25T15:41:00.023Z,1026.09
2019-02-25T15:45:58.113Z,1026.17
2019-02-25T15:50:58.584Z,1026.21
2019-02-25T15:55:59.196Z,1026.28
2019-02-25T16:00:56.748Z,1026.21
2019-02-25T16:05:59.811Z,1026.13
2019-02-25T16:10:56.133Z,1026.22
2019-02-25T16:15:54.952Z,1026.16
2019-02-25T16:20:57.561Z,1026.22
2019-02-25T16:25:56.905Z,1026.34
2019-02-25T16:30:55.630Z,1026.37
2019-02-25T16:35:54.913Z,1026.46
2019-02-25T16:40:56.707Z,1026.47
2019-02-25T16:45:54.660Z,1026.45
2019-02-25T16:50:54.681Z,1026.54
2019-02-25T16:55:54.748Z,1026.57
2019-02-25T17:00:58.111Z,1026.62
2019-02-25T17:05:53.712Z,1026.75
2019-02-25T17:10:55.267Z,1026.72
2019-02-25T17:15:53.738Z,1026.66
2019-02-25T17:20:52.681Z,1026.79
2019-02-25T17:25:52.755Z,1026.87
2019-02-25T17:30:52.770Z,1026.87
2019-02-25T17:35:54.243Z,1026.86
2019-02-25T17:40:52.646Z,1026.89
2019-02-25T17:45:51.699Z,1026.86
2019-02-25T17:50:50.652Z,1026.76
2019-02-25T17:55:51.193Z,1026.75
2019-02-25T18:00:48.726Z,1026.72
2019-02-25T18:05:48.110Z,1026.67
2019-02-25T18:10:47.517Z,1026.61
2019-02-25T18:15:47.699Z,1026.69
2019-02-25T18:20:45.598Z,1026.65
2019-02-25T18:25:45.649Z,1026.79
2019-02-25T18:30:45.635Z,1026.72
2019-02-25T18:35:45.709Z,1026.79
2019-02-25T18:40:46.239Z,1026.63
2019-02-25T18:45:44.796Z,1026.62
2019-02-25T18:50:47.023Z,1026.53
2019-02-25T18:55:43.650Z,1026.53
2019-02-25T19:00:44.599Z,1026.48
2019-02-25T19:05:41.759Z,1026.59
2019-02-25T19:10:43.796Z,1026.61
2019-02-25T19:15:41.748Z,1026.71
2019-02-25T19:20:43.526Z,1026.75
2019-02-25T19:25:41.724Z,1026.68
2019-02-25T19:30:40.794Z,1026.72
2019-02-25T19:35:40.863Z,1026.58
2019-02-25T19:40:40.877Z,1026.58
2019-02-25T19:45:42.617Z,1026.52
2019-02-25T19:50:50.564Z,1026.45
2019-02-25T19:55:40.765Z,1026.45
2019-02-25T20:00:39.692Z,1026.39
2019-02-25T20:05:43.395Z,1026.37
2019-02-25T20:10:39.808Z,1026.33
2019-02-25T20:15:41.777Z,1026.28
2019-02-25T20:20:41.342Z,1026.25
2019-02-25T20:25:42.432Z,1026.25
2019-02-25T20:30:39.796Z,1026.16
2019-02-25T20:35:39.939Z,1026.18
2019-02-25T20:40:40.688Z,1026.08
2019-02-25T20:45:39.694Z,1026.10
2019-02-25T20:50:40.702Z,1026.05
2019-02-25T20:55:39.964Z,1026.04
2019-02-25T21:00:39.805Z,1025.98
2019-02-25T21:05:38.674Z,1025.83
2019-02-25T21:10:39.185Z,1025.90
2019-02-25T21:15:40.255Z,1025.86
2019-02-25T21:20:38.028Z,1025.83
2019-02-25T21:25:38.517Z,1025.90
2019-02-25T21:30:39.128Z,1025.80
2019-02-25T21:35:37.066Z,1025.87
2019-02-25T21:40:34.063Z,1025.85
2019-02-25T21:45:32.925Z,1025.92
2019-02-25T21:50:35.889Z,1025.87
2019-02-25T21:55:34.743Z,1025.85
2019-02-25T22:00:35.777Z,1025.92
2019-02-25T22:05:32.656Z,1025.84
2019-02-25T22:10:34.908Z,1025.80
2019-02-25T22:15:34.008Z,1025.87
2019-02-25T22:20:35.598Z,1025.92
2019-02-25T22:25:31.499Z,1025.88
2019-02-25T22:30:30.665Z,1026.01
2019-02-25T22:35:33.120Z,1026.03
2019-02-25T22:40:30.516Z,1026.13
2019-02-25T22:45:31.471Z,1026.10
2019-02-25T22:50:31.145Z,1025.98
2019-02-25T22:55:30.491Z,1025.97
2019-02-25T23:00:30.430Z,1025.99
2019-02-25T23:05:30.498Z,1026.03
2019-02-25T23:10:31.559Z,1025.90
2019-02-25T23:15:31.533Z,1025.89
2019-02-25T23:20:33.901Z,1025.73
2019-02-25T23:25:31.495Z,1025.78
2019-02-25T23:30:30.449Z,1025.83
2019-02-25T23:35:29.462Z,1025.77
2019-02-25T23:40:33.331Z,1025.85
2019-02-25T23:45:29.529Z,1025.76
2019-02-25T23:50:31.800Z,1025.76
2019-02-25T23:55:29.720Z,1025.75
